sensor_id;sensor_type;location;lat;lon;timestamp;temperature;humidity
13970;DHT22;7057;49.984;8.404;2023-08-20T00:02:18;24.00;99.90
13970;DHT22;7057;49.984;8.404;2023-08-20T00:04:48;23.90;99.90
13970;DHT22;7057;49.984;8.404;2023-08-20T00:07:16;23.80;99.90
13970;DHT22;7057;49.984;8.404;2023-08-20T00:09:44;23.80;99.90
13970;DHT22;7057;49.984;8.404;2023-08-20T00:12:11;23.70;99.90
13970;DHT22;7057;49.984;8.404;2023-08-20T00:14:55;23.70;99.90
13970;DHT22;7057;49.984;8.404;2023-08-20T00:17:25;23.70;99.90
13970;DHT22;7057;49.984;8.404;2023-08-20T00:19:55;23.70;99.90
13970;DHT22;7057;49.984;8.404;2023-08-20T00:22:23;23.70;99.90
13970;DHT22;7057;49.984;8.404;2023-08-20T00:24:52;23.60;99.90
13970;DHT22;7057;49.984;8.404;2023-08-20T00:27:20;23.60;99.90
13970;DHT22;7057;49.984;8.404;2023-08-20T00:29:47;23.50;99.90
13970;DHT22;7057;49.984;8.404;2023-08-20T00:32:14;23.50;99.90
13970;DHT22;7057;49.984;8.404;2023-08-20T00:34:41;23.50;99.90
13970;DHT22;7057;49.984;8.404;2023-08-20T00:37:10;23.40;99.90
13970;DHT22;7057;49.984;8.404;2023-08-20T00:39:39;23.40;99.90
13970;DHT22;7057;49.984;8.404;2023-08-20T00:42:06;23.40;99.90
13970;DHT22;7057;49.984;8.404;2023-08-20T00:44:34;23.30;99.90
13970;DHT22;7057;49.984;8.404;2023-08-20T00:47:01;23.30;99.90
13970;DHT22;7057;49.984;8.404;2023-08-20T00:49:29;23.30;99.90
13970;DHT22;7057;49.984;8.404;2023-08-20T00:51:57;23.20;99.90
13970;DHT22;7057;49.984;8.404;2023-08-20T00:54:26;23.30;99.90
13970;DHT22;7057;49.984;8.404;2023-08-20T00:56:54;23.30;99.90
13970;DHT22;7057;49.984;8.404;2023-08-20T00:59:22;23.20;99.90
13970;DHT22;7057;49.984;8.404;2023-08-20T01:01:50;23.10;99.90
13970;DHT22;7057;49.984;8.404;2023-08-20T01:04:17;23.10;99.90
13970;DHT22;7057;49.984;8.404;2023-08-20T01:06:51;23.10;99.90
13970;DHT22;7057;49.984;8.404;2023-08-20T01:09:28;23.10;99.90
13970;DHT22;7057;49.984;8.404;2023-08-20T01:11:59;23.00;99.90
13970;DHT22;7057;49.984;8.404;2023-08-20T01:14:27;22.90;99.90
13970;DHT22;7057;49.984;8.404;2023-08-20T01:16:54;22.90;99.90
13970;DHT22;7057;49.984;8.404;2023-08-20T01:19:22;22.80;99.90
13970;DHT22;7057;49.984;8.404;2023-08-20T01:22:00;22.80;99.90
13970;DHT22;7057;49.984;8.404;2023-08-20T01:24:44;22.70;99.90
13970;DHT22;7057;49.984;8.404;2023-08-20T01:27:28;22.70;99.90
13970;DHT22;7057;49.984;8.404;2023-08-20T01:29:58;22.60;99.90
13970;DHT22;7057;49.984;8.404;2023-08-20T01:32:27;22.60;99.90
13970;DHT22;7057;49.984;8.404;2023-08-20T01:34:54;22.50;99.90
13970;DHT22;7057;49.984;8.404;2023-08-20T01:37:22;22.50;99.90
13970;DHT22;7057;49.984;8.404;2023-08-20T01:39:50;22.50;99.90
13970;DHT22;7057;49.984;8.404;2023-08-20T01:42:17;22.40;99.90
13970;DHT22;7057;49.984;8.404;2023-08-20T01:44:44;22.40;99.90
13970;DHT22;7057;49.984;8.404;2023-08-20T01:47:13;22.30;99.90
13970;DHT22;7057;49.984;8.404;2023-08-20T01:49:40;22.30;99.90
13970;DHT22;7057;49.984;8.404;2023-08-20T01:52:07;22.30;99.90
13970;DHT22;7057;49.984;8.404;2023-08-20T01:54:34;22.20;99.90
13970;DHT22;7057;49.984;8.404;2023-08-20T01:57:01;22.20;99.90
13970;DHT22;7057;49.984;8.404;2023-08-20T01:59:29;22.10;99.90
13970;DHT22;7057;49.984;8.404;2023-08-20T02:01:56;22.10;99.90
13970;DHT22;7057;49.984;8.404;2023-08-20T02:04:24;22.10;99.90
13970;DHT22;7057;49.984;8.404;2023-08-20T02:06:52;22.10;99.90
13970;DHT22;7057;49.984;8.404;2023-08-20T02:09:19;22.10;99.90
13970;DHT22;7057;49.984;8.404;2023-08-20T02:11:46;22.00;99.90
13970;DHT22;7057;49.984;8.404;2023-08-20T02:14:14;22.00;99.90
13970;DHT22;7057;49.984;8.404;2023-08-20T02:16:41;22.00;99.90
13970;DHT22;7057;49.984;8.404;2023-08-20T02:19:08;22.00;99.90
13970;DHT22;7057;49.984;8.404;2023-08-20T02:21:36;22.00;99.90
13970;DHT22;7057;49.984;8.404;2023-08-20T02:24:04;21.90;99.90
13970;DHT22;7057;49.984;8.404;2023-08-20T02:26:31;21.90;99.90
13970;DHT22;7057;49.984;8.404;2023-08-20T02:28:59;21.90;99.90
13970;DHT22;7057;49.984;8.404;2023-08-20T02:31:26;21.80;99.90
13970;DHT22;7057;49.984;8.404;2023-08-20T02:33:53;21.70;99.90
13970;DHT22;7057;49.984;8.404;2023-08-20T02:36:20;21.70;99.90
13970;DHT22;7057;49.984;8.404;2023-08-20T02:38:50;21.70;99.90
13970;DHT22;7057;49.984;8.404;2023-08-20T02:41:17;21.60;99.90
13970;DHT22;7057;49.984;8.404;2023-08-20T02:43:44;21.60;99.90
13970;DHT22;7057;49.984;8.404;2023-08-20T02:46:11;21.60;99.90
13970;DHT22;7057;49.984;8.404;2023-08-20T02:48:38;21.50;99.90
13970;DHT22;7057;49.984;8.404;2023-08-20T02:51:05;21.50;99.90
13970;DHT22;7057;49.984;8.404;2023-08-20T02:53:33;21.50;99.90
13970;DHT22;7057;49.984;8.404;2023-08-20T02:56:01;21.50;99.90
13970;DHT22;7057;49.984;8.404;2023-08-20T02:58:29;21.40;99.90
13970;DHT22;7057;49.984;8.404;2023-08-20T03:00:56;21.40;99.90
13970;DHT22;7057;49.984;8.404;2023-08-20T03:03:24;21.40;99.90
13970;DHT22;7057;49.984;8.404;2023-08-20T03:05:51;21.40;99.90
13970;DHT22;7057;49.984;8.404;2023-08-20T03:08:18;21.40;99.90
13970;DHT22;7057;49.984;8.404;2023-08-20T03:10:45;21.30;99.90
13970;DHT22;7057;49.984;8.404;2023-08-20T03:13:14;21.20;99.90
13970;DHT22;7057;49.984;8.404;2023-08-20T03:15:41;21.20;99.90
13970;DHT22;7057;49.984;8.404;2023-08-20T03:18:08;21.20;99.90
13970;DHT22;7057;49.984;8.404;2023-08-20T03:20:35;21.20;99.90
13970;DHT22;7057;49.984;8.404;2023-08-20T03:23:02;21.20;99.90
13970;DHT22;7057;49.984;8.404;2023-08-20T03:25:30;21.20;99.90
13970;DHT22;7057;49.984;8.404;2023-08-20T03:27:57;21.20;99.90
13970;DHT22;7057;49.984;8.404;2023-08-20T03:30:25;21.10;99.90
13970;DHT22;7057;49.984;8.404;2023-08-20T03:32:53;21.10;99.90
13970;DHT22;7057;49.984;8.404;2023-08-20T03:35:20;21.10;99.90
13970;DHT22;7057;49.984;8.404;2023-08-20T03:37:47;21.10;99.90
13970;DHT22;7057;49.984;8.404;2023-08-20T03:40:15;21.10;99.90
13970;DHT22;7057;49.984;8.404;2023-08-20T03:42:44;21.00;99.90
13970;DHT22;7057;49.984;8.404;2023-08-20T03:45:11;21.00;99.90
13970;DHT22;7057;49.984;8.404;2023-08-20T03:47:39;21.00;99.90
13970;DHT22;7057;49.984;8.404;2023-08-20T03:50:09;21.00;99.90
13970;DHT22;7057;49.984;8.404;2023-08-20T03:52:37;21.10;99.90
13970;DHT22;7057;49.984;8.404;2023-08-20T03:55:05;21.10;99.90
13970;DHT22;7057;49.984;8.404;2023-08-20T03:57:33;21.10;99.90
13970;DHT22;7057;49.984;8.404;2023-08-20T04:00:00;21.00;99.90
13970;DHT22;7057;49.984;8.404;2023-08-20T04:02:27;21.00;99.90
13970;DHT22;7057;49.984;8.404;2023-08-20T04:04:57;21.10;99.90
13970;DHT22;7057;49.984;8.404;2023-08-20T04:07:24;21.10;99.90
13970;DHT22;7057;49.984;8.404;2023-08-20T04:09:51;21.20;99.90
13970;DHT22;7057;49.984;8.404;2023-08-20T04:12:18;21.30;99.90
13970;DHT22;7057;49.984;8.404;2023-08-20T04:14:45;21.30;99.90
13970;DHT22;7057;49.984;8.404;2023-08-20T04:17:12;21.40;99.90
13970;DHT22;7057;49.984;8.404;2023-08-20T04:19:40;21.40;99.90
13970;DHT22;7057;49.984;8.404;2023-08-20T04:22:08;21.50;99.90
13970;DHT22;7057;49.984;8.404;2023-08-20T04:24:35;21.50;99.90
13970;DHT22;7057;49.984;8.404;2023-08-20T04:27:02;21.50;99.90
13970;DHT22;7057;49.984;8.404;2023-08-20T04:29:30;21.60;99.90
13970;DHT22;7057;49.984;8.404;2023-08-20T04:31:57;21.60;99.90
13970;DHT22;7057;49.984;8.404;2023-08-20T04:34:24;21.60;99.90
13970;DHT22;7057;49.984;8.404;2023-08-20T04:36:51;21.70;99.90
13970;DHT22;7057;49.984;8.404;2023-08-20T04:39:19;21.70;99.90
13970;DHT22;7057;49.984;8.404;2023-08-20T04:41:46;21.70;99.90
13970;DHT22;7057;49.984;8.404;2023-08-20T04:44:14;21.70;99.90
13970;DHT22;7057;49.984;8.404;2023-08-20T04:46:42;21.80;99.90
13970;DHT22;7057;49.984;8.404;2023-08-20T04:49:09;21.80;99.90
13970;DHT22;7057;49.984;8.404;2023-08-20T04:51:36;21.80;99.90
13970;DHT22;7057;49.984;8.404;2023-08-20T04:54:04;21.80;99.90
13970;DHT22;7057;49.984;8.404;2023-08-20T04:56:32;21.80;99.90
13970;DHT22;7057;49.984;8.404;2023-08-20T04:58:59;21.90;99.90
13970;DHT22;7057;49.984;8.404;2023-08-20T05:01:26;21.90;99.90
13970;DHT22;7057;49.984;8.404;2023-08-20T05:03:54;22.00;99.90
13970;DHT22;7057;49.984;8.404;2023-08-20T05:06:21;22.00;99.90
13970;DHT22;7057;49.984;8.404;2023-08-20T05:08:48;22.10;99.90
13970;DHT22;7057;49.984;8.404;2023-08-20T05:11:15;22.10;99.90
13970;DHT22;7057;49.984;8.404;2023-08-20T05:13:45;22.10;99.90
13970;DHT22;7057;49.984;8.404;2023-08-20T05:16:12;22.10;99.90
13970;DHT22;7057;49.984;8.404;2023-08-20T05:18:39;22.10;99.90
13970;DHT22;7057;49.984;8.404;2023-08-20T05:21:06;22.10;99.90
13970;DHT22;7057;49.984;8.404;2023-08-20T05:23:33;22.20;99.90
13970;DHT22;7057;49.984;8.404;2023-08-20T05:26:00;22.20;99.90
13970;DHT22;7057;49.984;8.404;2023-08-20T05:28:27;22.30;99.90
13970;DHT22;7057;49.984;8.404;2023-08-20T05:30:56;22.40;99.90
13970;DHT22;7057;49.984;8.404;2023-08-20T05:33:24;22.50;99.90
13970;DHT22;7057;49.984;8.404;2023-08-20T05:35:51;22.70;99.90
13970;DHT22;7057;49.984;8.404;2023-08-20T05:38:18;22.80;99.90
13970;DHT22;7057;49.984;8.404;2023-08-20T05:40:45;23.00;99.90
13970;DHT22;7057;49.984;8.404;2023-08-20T05:43:12;23.10;99.90
13970;DHT22;7057;49.984;8.404;2023-08-20T05:45:39;23.20;99.90
13970;DHT22;7057;49.984;8.404;2023-08-20T05:48:08;23.30;99.90
13970;DHT22;7057;49.984;8.404;2023-08-20T05:50:35;23.40;99.90
13970;DHT22;7057;49.984;8.404;2023-08-20T05:53:02;23.40;99.90
13970;DHT22;7057;49.984;8.404;2023-08-20T05:55:29;23.50;99.90
13970;DHT22;7057;49.984;8.404;2023-08-20T05:57:56;23.50;99.90
13970;DHT22;7057;49.984;8.404;2023-08-20T06:00:24;23.60;99.90
13970;DHT22;7057;49.984;8.404;2023-08-20T06:02:51;23.60;99.90
13970;DHT22;7057;49.984;8.404;2023-08-20T06:05:19;23.70;99.90
13970;DHT22;7057;49.984;8.404;2023-08-20T06:07:46;23.80;99.90
13970;DHT22;7057;49.984;8.404;2023-08-20T06:10:13;23.80;99.90
13970;DHT22;7057;49.984;8.404;2023-08-20T06:12:40;23.90;99.90
13970;DHT22;7057;49.984;8.404;2023-08-20T06:15:08;24.00;99.90
13970;DHT22;7057;49.984;8.404;2023-08-20T06:17:35;23.90;99.90
13970;DHT22;7057;49.984;8.404;2023-08-20T06:20:04;23.90;99.90
13970;DHT22;7057;49.984;8.404;2023-08-20T06:22:34;24.00;99.90
13970;DHT22;7057;49.984;8.404;2023-08-20T06:25:01;24.00;99.90
13970;DHT22;7057;49.984;8.404;2023-08-20T06:27:29;24.10;99.90
13970;DHT22;7057;49.984;8.404;2023-08-20T06:29:56;24.10;99.90
13970;DHT22;7057;49.984;8.404;2023-08-20T06:32:23;24.20;99.90
13970;DHT22;7057;49.984;8.404;2023-08-20T06:34:50;24.30;99.90
13970;DHT22;7057;49.984;8.404;2023-08-20T06:37:18;24.30;99.90
13970;DHT22;7057;49.984;8.404;2023-08-20T06:39:46;24.40;99.90
13970;DHT22;7057;49.984;8.404;2023-08-20T06:42:13;24.50;99.90
13970;DHT22;7057;49.984;8.404;2023-08-20T06:44:40;24.60;99.90
13970;DHT22;7057;49.984;8.404;2023-08-20T06:47:07;24.70;99.90
13970;DHT22;7057;49.984;8.404;2023-08-20T06:49:35;24.80;99.90
13970;DHT22;7057;49.984;8.404;2023-08-20T06:52:02;24.90;99.90
13970;DHT22;7057;49.984;8.404;2023-08-20T06:54:29;25.00;99.90
13970;DHT22;7057;49.984;8.404;2023-08-20T06:56:57;25.00;99.90
13970;DHT22;7057;49.984;8.404;2023-08-20T06:59:25;25.00;99.90
13970;DHT22;7057;49.984;8.404;2023-08-20T07:01:53;25.10;99.90
13970;DHT22;7057;49.984;8.404;2023-08-20T07:04:20;25.10;99.90
13970;DHT22;7057;49.984;8.404;2023-08-20T07:06:47;25.30;99.90
13970;DHT22;7057;49.984;8.404;2023-08-20T07:09:14;25.40;99.90
13970;DHT22;7057;49.984;8.404;2023-08-20T07:11:42;25.60;99.90
13970;DHT22;7057;49.984;8.404;2023-08-20T07:14:10;25.80;99.90
13970;DHT22;7057;49.984;8.404;2023-08-20T07:16:37;25.90;99.90
13970;DHT22;7057;49.984;8.404;2023-08-20T07:19:04;25.90;99.90
13970;DHT22;7057;49.984;8.404;2023-08-20T07:21:31;26.00;99.90
13970;DHT22;7057;49.984;8.404;2023-08-20T07:23:58;26.10;99.90
13970;DHT22;7057;49.984;8.404;2023-08-20T07:26:26;26.20;99.90
13970;DHT22;7057;49.984;8.404;2023-08-20T07:28:53;26.30;99.90
13970;DHT22;7057;49.984;8.404;2023-08-20T07:31:25;26.30;99.90
13970;DHT22;7057;49.984;8.404;2023-08-20T07:33:53;26.40;99.90
13970;DHT22;7057;49.984;8.404;2023-08-20T07:36:21;26.40;99.90
13970;DHT22;7057;49.984;8.404;2023-08-20T07:38:49;26.40;99.90
13970;DHT22;7057;49.984;8.404;2023-08-20T07:41:17;26.50;99.90
13970;DHT22;7057;49.984;8.404;2023-08-20T07:43:45;26.60;99.90
13970;DHT22;7057;49.984;8.404;2023-08-20T07:46:13;26.60;99.90
13970;DHT22;7057;49.984;8.404;2023-08-20T07:48:42;26.80;99.90
13970;DHT22;7057;49.984;8.404;2023-08-20T07:51:09;26.90;99.90
13970;DHT22;7057;49.984;8.404;2023-08-20T07:53:36;27.00;99.90
13970;DHT22;7057;49.984;8.404;2023-08-20T07:56:04;27.00;99.90
13970;DHT22;7057;49.984;8.404;2023-08-20T07:58:31;27.00;99.90
13970;DHT22;7057;49.984;8.404;2023-08-20T08:00:58;27.00;99.90
13970;DHT22;7057;49.984;8.404;2023-08-20T08:03:26;27.10;99.90
13970;DHT22;7057;49.984;8.404;2023-08-20T08:05:55;27.10;99.90
13970;DHT22;7057;49.984;8.404;2023-08-20T08:08:22;27.20;99.90
13970;DHT22;7057;49.984;8.404;2023-08-20T08:10:49;27.20;99.90
13970;DHT22;7057;49.984;8.404;2023-08-20T08:13:19;27.30;99.90
13970;DHT22;7057;49.984;8.404;2023-08-20T08:15:46;27.30;99.90
13970;DHT22;7057;49.984;8.404;2023-08-20T08:18:14;27.30;99.90
13970;DHT22;7057;49.984;8.404;2023-08-20T08:20:41;27.50;99.90
13970;DHT22;7057;49.984;8.404;2023-08-20T08:23:09;27.60;99.90
13970;DHT22;7057;49.984;8.404;2023-08-20T08:25:37;27.80;99.90
13970;DHT22;7057;49.984;8.404;2023-08-20T08:28:04;27.90;99.90
13970;DHT22;7057;49.984;8.404;2023-08-20T08:30:32;28.00;99.90
13970;DHT22;7057;49.984;8.404;2023-08-20T08:32:59;28.10;99.90
13970;DHT22;7057;49.984;8.404;2023-08-20T08:35:26;28.10;99.90
13970;DHT22;7057;49.984;8.404;2023-08-20T08:37:53;28.20;99.90
13970;DHT22;7057;49.984;8.404;2023-08-20T08:40:23;28.20;99.90
13970;DHT22;7057;49.984;8.404;2023-08-20T08:42:54;28.30;99.90
13970;DHT22;7057;49.984;8.404;2023-08-20T08:45:22;28.40;99.90
13970;DHT22;7057;49.984;8.404;2023-08-20T08:47:49;28.50;99.90
13970;DHT22;7057;49.984;8.404;2023-08-20T08:50:17;28.60;99.90
13970;DHT22;7057;49.984;8.404;2023-08-20T08:52:45;28.70;99.90
13970;DHT22;7057;49.984;8.404;2023-08-20T08:55:14;28.80;99.90
13970;DHT22;7057;49.984;8.404;2023-08-20T08:57:42;28.90;99.90
13970;DHT22;7057;49.984;8.404;2023-08-20T09:00:10;28.90;99.90
13970;DHT22;7057;49.984;8.404;2023-08-20T09:02:38;28.90;99.90
13970;DHT22;7057;49.984;8.404;2023-08-20T09:05:05;28.90;99.90
13970;DHT22;7057;49.984;8.404;2023-08-20T09:07:33;28.90;99.90
13970;DHT22;7057;49.984;8.404;2023-08-20T09:10:00;28.90;99.90
13970;DHT22;7057;49.984;8.404;2023-08-20T09:12:27;28.90;99.90
13970;DHT22;7057;49.984;8.404;2023-08-20T09:14:56;29.10;99.90
13970;DHT22;7057;49.984;8.404;2023-08-20T09:17:26;29.20;99.90
13970;DHT22;7057;49.984;8.404;2023-08-20T09:19:54;29.30;99.90
13970;DHT22;7057;49.984;8.404;2023-08-20T09:22:23;29.40;99.90
13970;DHT22;7057;49.984;8.404;2023-08-20T09:24:54;29.50;99.90
13970;DHT22;7057;49.984;8.404;2023-08-20T09:27:22;29.60;99.90
13970;DHT22;7057;49.984;8.404;2023-08-20T09:29:50;29.70;99.90
13970;DHT22;7057;49.984;8.404;2023-08-20T09:32:20;29.60;99.90
13970;DHT22;7057;49.984;8.404;2023-08-20T09:34:48;29.50;99.90
13970;DHT22;7057;49.984;8.404;2023-08-20T09:37:17;29.50;99.90
13970;DHT22;7057;49.984;8.404;2023-08-20T09:39:45;29.60;99.90
13970;DHT22;7057;49.984;8.404;2023-08-20T09:42:13;29.70;99.90
13970;DHT22;7057;49.984;8.404;2023-08-20T09:44:42;29.90;99.90
13970;DHT22;7057;49.984;8.404;2023-08-20T09:47:11;30.10;99.90
13970;DHT22;7057;49.984;8.404;2023-08-20T09:49:41;30.20;99.90
13970;DHT22;7057;49.984;8.404;2023-08-20T09:52:10;30.30;99.90
13970;DHT22;7057;49.984;8.404;2023-08-20T09:54:49;30.20;99.90
13970;DHT22;7057;49.984;8.404;2023-08-20T09:57:23;30.30;99.90
13970;DHT22;7057;49.984;8.404;2023-08-20T09:59:53;30.40;99.90
13970;DHT22;7057;49.984;8.404;2023-08-20T10:02:21;30.60;99.90
13970;DHT22;7057;49.984;8.404;2023-08-20T10:04:50;30.70;99.90
13970;DHT22;7057;49.984;8.404;2023-08-20T10:07:19;30.70;99.90
13970;DHT22;7057;49.984;8.404;2023-08-20T10:09:46;30.70;99.90
13970;DHT22;7057;49.984;8.404;2023-08-20T10:12:16;30.70;99.90
13970;DHT22;7057;49.984;8.404;2023-08-20T10:14:43;30.70;99.90
13970;DHT22;7057;49.984;8.404;2023-08-20T10:17:12;30.60;99.90
13970;DHT22;7057;49.984;8.404;2023-08-20T10:19:41;30.60;99.90
13970;DHT22;7057;49.984;8.404;2023-08-20T10:22:10;30.70;99.90
13970;DHT22;7057;49.984;8.404;2023-08-20T10:24:48;30.70;99.90
13970;DHT22;7057;49.984;8.404;2023-08-20T10:27:24;30.70;99.90
13970;DHT22;7057;49.984;8.404;2023-08-20T10:29:53;30.60;99.90
13970;DHT22;7057;49.984;8.404;2023-08-20T10:32:22;30.60;99.90
13970;DHT22;7057;49.984;8.404;2023-08-20T10:35:08;30.70;99.90
13970;DHT22;7057;49.984;8.404;2023-08-20T10:37:36;30.70;99.90
13970;DHT22;7057;49.984;8.404;2023-08-20T10:40:07;30.80;99.90
13970;DHT22;7057;49.984;8.404;2023-08-20T10:42:41;30.90;99.90
13970;DHT22;7057;49.984;8.404;2023-08-20T10:45:09;31.00;99.90
13970;DHT22;7057;49.984;8.404;2023-08-20T10:47:42;31.00;99.90
13970;DHT22;7057;49.984;8.404;2023-08-20T10:50:10;31.10;99.90
13970;DHT22;7057;49.984;8.404;2023-08-20T10:52:40;31.10;99.90
13970;DHT22;7057;49.984;8.404;2023-08-20T10:55:08;31.10;99.90
13970;DHT22;7057;49.984;8.404;2023-08-20T10:57:36;31.20;99.90
13970;DHT22;7057;49.984;8.404;2023-08-20T11:00:05;31.20;99.90
13970;DHT22;7057;49.984;8.404;2023-08-20T11:02:37;31.30;99.90
13970;DHT22;7057;49.984;8.404;2023-08-20T11:05:16;31.30;99.90
13970;DHT22;7057;49.984;8.404;2023-08-20T11:07:46;31.30;99.90
13970;DHT22;7057;49.984;8.404;2023-08-20T11:10:15;31.40;99.90
13970;DHT22;7057;49.984;8.404;2023-08-20T11:12:42;31.40;99.90
13970;DHT22;7057;49.984;8.404;2023-08-20T11:15:10;31.40;99.90
13970;DHT22;7057;49.984;8.404;2023-08-20T11:17:41;31.50;99.90
13970;DHT22;7057;49.984;8.404;2023-08-20T11:20:09;31.50;99.90
13970;DHT22;7057;49.984;8.404;2023-08-20T11:22:38;31.50;99.90
13970;DHT22;7057;49.984;8.404;2023-08-20T11:25:10;31.50;99.90
13970;DHT22;7057;49.984;8.404;2023-08-20T11:27:40;31.60;99.90
13970;DHT22;7057;49.984;8.404;2023-08-20T11:30:08;31.60;99.90
13970;DHT22;7057;49.984;8.404;2023-08-20T11:32:36;31.60;99.90
13970;DHT22;7057;49.984;8.404;2023-08-20T11:35:04;31.70;99.90
13970;DHT22;7057;49.984;8.404;2023-08-20T11:37:32;31.70;99.90
13970;DHT22;7057;49.984;8.404;2023-08-20T11:39:59;31.80;99.90
13970;DHT22;7057;49.984;8.404;2023-08-20T11:42:28;31.80;99.90
13970;DHT22;7057;49.984;8.404;2023-08-20T11:44:56;31.90;99.90
13970;DHT22;7057;49.984;8.404;2023-08-20T11:47:23;32.00;99.90
13970;DHT22;7057;49.984;8.404;2023-08-20T11:50:02;32.00;99.90
13970;DHT22;7057;49.984;8.404;2023-08-20T11:52:31;32.00;99.90
13970;DHT22;7057;49.984;8.404;2023-08-20T11:54:59;32.10;99.90
13970;DHT22;7057;49.984;8.404;2023-08-20T11:57:27;32.10;99.90
13970;DHT22;7057;49.984;8.404;2023-08-20T11:59:55;32.10;99.90
13970;DHT22;7057;49.984;8.404;2023-08-20T12:02:25;31.90;99.90
13970;DHT22;7057;49.984;8.404;2023-08-20T12:04:55;32.00;99.90
13970;DHT22;7057;49.984;8.404;2023-08-20T12:07:25;32.10;99.90
13970;DHT22;7057;49.984;8.404;2023-08-20T12:09:53;32.10;99.90
13970;DHT22;7057;49.984;8.404;2023-08-20T12:12:21;32.10;99.90
13970;DHT22;7057;49.984;8.404;2023-08-20T12:14:50;32.20;99.90
13970;DHT22;7057;49.984;8.404;2023-08-20T12:17:17;32.20;99.90
13970;DHT22;7057;49.984;8.404;2023-08-20T12:19:45;32.20;99.90
13970;DHT22;7057;49.984;8.404;2023-08-20T12:22:12;32.10;99.90
13970;DHT22;7057;49.984;8.404;2023-08-20T12:24:40;32.20;99.90
13970;DHT22;7057;49.984;8.404;2023-08-20T12:27:07;32.20;99.90
13970;DHT22;7057;49.984;8.404;2023-08-20T12:29:34;32.40;99.90
13970;DHT22;7057;49.984;8.404;2023-08-20T12:32:02;32.50;99.90
13970;DHT22;7057;49.984;8.404;2023-08-20T12:34:33;32.50;99.90
13970;DHT22;7057;49.984;8.404;2023-08-20T12:37:00;32.60;99.90
13970;DHT22;7057;49.984;8.404;2023-08-20T12:39:28;32.60;99.90
13970;DHT22;7057;49.984;8.404;2023-08-20T12:41:55;32.60;99.90
13970;DHT22;7057;49.984;8.404;2023-08-20T12:44:22;32.60;99.90
13970;DHT22;7057;49.984;8.404;2023-08-20T12:46:49;32.60;99.90
13970;DHT22;7057;49.984;8.404;2023-08-20T12:49:18;32.70;99.90
13970;DHT22;7057;49.984;8.404;2023-08-20T12:51:45;32.70;99.90
13970;DHT22;7057;49.984;8.404;2023-08-20T12:54:12;32.80;99.90
13970;DHT22;7057;49.984;8.404;2023-08-20T12:56:39;32.80;99.90
13970;DHT22;7057;49.984;8.404;2023-08-20T12:59:07;32.70;99.90
13970;DHT22;7057;49.984;8.404;2023-08-20T13:01:34;32.80;99.90
13970;DHT22;7057;49.984;8.404;2023-08-20T13:04:01;32.70;99.90
13970;DHT22;7057;49.984;8.404;2023-08-20T13:06:31;32.80;99.90
13970;DHT22;7057;49.984;8.404;2023-08-20T13:08:59;32.90;99.90
13970;DHT22;7057;49.984;8.404;2023-08-20T13:11:28;33.00;99.90
13970;DHT22;7057;49.984;8.404;2023-08-20T13:13:57;32.90;99.90
13970;DHT22;7057;49.984;8.404;2023-08-20T13:16:24;32.90;99.90
13970;DHT22;7057;49.984;8.404;2023-08-20T13:18:52;33.00;99.90
13970;DHT22;7057;49.984;8.404;2023-08-20T13:21:19;33.00;99.90
13970;DHT22;7057;49.984;8.404;2023-08-20T13:23:48;33.00;99.90
13970;DHT22;7057;49.984;8.404;2023-08-20T13:26:15;33.00;99.90
13970;DHT22;7057;49.984;8.404;2023-08-20T13:28:43;33.10;99.90
13970;DHT22;7057;49.984;8.404;2023-08-20T13:31:10;33.30;99.90
13970;DHT22;7057;49.984;8.404;2023-08-20T13:33:38;33.30;99.90
13970;DHT22;7057;49.984;8.404;2023-08-20T13:36:05;33.30;99.90
13970;DHT22;7057;49.984;8.404;2023-08-20T13:38:34;33.20;99.90
13970;DHT22;7057;49.984;8.404;2023-08-20T13:41:02;33.20;99.90
13970;DHT22;7057;49.984;8.404;2023-08-20T13:43:29;33.30;99.90
13970;DHT22;7057;49.984;8.404;2023-08-20T13:45:56;33.30;99.90
13970;DHT22;7057;49.984;8.404;2023-08-20T13:48:23;33.30;99.90
13970;DHT22;7057;49.984;8.404;2023-08-20T13:50:51;33.30;99.90
13970;DHT22;7057;49.984;8.404;2023-08-20T13:53:18;33.30;99.90
13970;DHT22;7057;49.984;8.404;2023-08-20T13:55:45;33.30;99.90
13970;DHT22;7057;49.984;8.404;2023-08-20T13:58:13;33.30;99.90
13970;DHT22;7057;49.984;8.404;2023-08-20T14:00:40;33.40;99.90
13970;DHT22;7057;49.984;8.404;2023-08-20T14:03:08;33.40;99.90
13970;DHT22;7057;49.984;8.404;2023-08-20T14:05:35;33.50;99.90
13970;DHT22;7057;49.984;8.404;2023-08-20T14:08:02;33.50;99.90
13970;DHT22;7057;49.984;8.404;2023-08-20T14:10:29;33.50;99.90
13970;DHT22;7057;49.984;8.404;2023-08-20T14:12:56;33.70;99.90
13970;DHT22;7057;49.984;8.404;2023-08-20T14:15:25;33.80;99.90
13970;DHT22;7057;49.984;8.404;2023-08-20T14:17:52;33.80;99.90
13970;DHT22;7057;49.984;8.404;2023-08-20T14:20:19;33.80;99.90
13970;DHT22;7057;49.984;8.404;2023-08-20T14:22:46;33.80;99.90
13970;DHT22;7057;49.984;8.404;2023-08-20T14:25:13;33.80;99.90
13970;DHT22;7057;49.984;8.404;2023-08-20T14:27:41;33.70;99.90
13970;DHT22;7057;49.984;8.404;2023-08-20T14:30:08;33.70;99.90
13970;DHT22;7057;49.984;8.404;2023-08-20T14:32:37;33.70;99.90
13970;DHT22;7057;49.984;8.404;2023-08-20T14:35:05;33.70;99.90
13970;DHT22;7057;49.984;8.404;2023-08-20T14:37:32;33.70;99.90
13970;DHT22;7057;49.984;8.404;2023-08-20T14:39:59;33.70;99.90
13970;DHT22;7057;49.984;8.404;2023-08-20T14:42:26;33.70;99.90
13970;DHT22;7057;49.984;8.404;2023-08-20T14:44:53;33.70;99.90
13970;DHT22;7057;49.984;8.404;2023-08-20T14:47:21;33.50;99.90
13970;DHT22;7057;49.984;8.404;2023-08-20T14:49:49;33.30;99.90
13970;DHT22;7057;49.984;8.404;2023-08-20T14:52:18;33.10;99.90
13970;DHT22;7057;49.984;8.404;2023-08-20T14:54:45;33.20;99.90
13970;DHT22;7057;49.984;8.404;2023-08-20T14:57:12;33.20;99.90
13970;DHT22;7057;49.984;8.404;2023-08-20T14:59:41;33.30;99.90
13970;DHT22;7057;49.984;8.404;2023-08-20T15:02:08;33.40;99.90
13970;DHT22;7057;49.984;8.404;2023-08-20T15:04:35;33.50;99.90
13970;DHT22;7057;49.984;8.404;2023-08-20T15:07:03;33.60;99.90
13970;DHT22;7057;49.984;8.404;2023-08-20T15:09:31;33.50;99.90
13970;DHT22;7057;49.984;8.404;2023-08-20T15:11:58;33.50;99.90
13970;DHT22;7057;49.984;8.404;2023-08-20T15:14:25;33.50;99.90
13970;DHT22;7057;49.984;8.404;2023-08-20T15:16:52;33.50;99.90
13970;DHT22;7057;49.984;8.404;2023-08-20T15:19:19;33.50;99.90
13970;DHT22;7057;49.984;8.404;2023-08-20T15:21:46;33.50;99.90
13970;DHT22;7057;49.984;8.404;2023-08-20T15:24:15;33.50;99.90
13970;DHT22;7057;49.984;8.404;2023-08-20T15:26:42;33.50;99.90
13970;DHT22;7057;49.984;8.404;2023-08-20T15:29:09;33.60;99.90
13970;DHT22;7057;49.984;8.404;2023-08-20T15:31:36;33.60;99.90
13970;DHT22;7057;49.984;8.404;2023-08-20T15:34:03;33.60;99.90
13970;DHT22;7057;49.984;8.404;2023-08-20T15:36:31;33.70;99.90
13970;DHT22;7057;49.984;8.404;2023-08-20T15:38:58;33.80;99.90
13970;DHT22;7057;49.984;8.404;2023-08-20T15:41:26;33.80;99.90
13970;DHT22;7057;49.984;8.404;2023-08-20T15:43:54;33.80;99.90
13970;DHT22;7057;49.984;8.404;2023-08-20T15:46:21;33.80;99.90
13970;DHT22;7057;49.984;8.404;2023-08-20T15:48:49;33.80;99.90
13970;DHT22;7057;49.984;8.404;2023-08-20T15:51:16;33.90;99.90